createdAt,value
2022-09-04T00:02:33.960Z,3.70
2022-09-04T00:05:20.282Z,2.20
2022-09-04T00:07:59.795Z,2.40
2022-09-04T00:10:39.194Z,1.90
2022-09-04T00:13:27.698Z,2.65
2022-09-04T00:16:06.876Z,2.12
2022-09-04T00:18:49.219Z,2.22
2022-09-04T00:21:28.961Z,2.10
2022-09-04T00:24:01.914Z,2.00
2022-09-04T00:26:41.616Z,2.05
2022-09-04T00:29:21.357Z,2.20
2022-09-04T00:31:54.965Z,1.95
2022-09-04T00:34:34.347Z,2.12
2022-09-04T00:37:11.396Z,2.22
2022-09-04T00:39:47.743Z,1.90
2022-09-04T00:42:37.671Z,1.90
2022-09-04T00:45:17.404Z,2.33
2022-09-04T00:48:12.231Z,2.15
2022-09-04T00:50:48.725Z,2.10
2022-09-04T00:53:40.161Z,1.90
2022-09-04T00:56:33.207Z,2.05
2022-09-04T00:59:26.235Z,2.27
2022-09-04T01:01:59.940Z,1.72
2022-09-04T01:04:45.557Z,1.80
2022-09-04T01:07:20.725Z,2.02
2022-09-04T01:10:11.054Z,1.80
2022-09-04T01:13:12.922Z,1.90
2022-09-04T01:15:51.148Z,1.80
2022-09-04T01:18:33.011Z,1.85
2022-09-04T01:21:23.494Z,1.90
2022-09-04T01:24:15.230Z,1.80
2022-09-04T01:27:04.046Z,1.70
2022-09-04T01:29:56.682Z,1.90
2022-09-04T01:32:39.093Z,1.82
2022-09-04T01:35:32.353Z,1.82
2022-09-04T01:38:36.137Z,1.70
2022-09-04T01:41:20.943Z,2.00
2022-09-04T01:43:52.609Z,1.70
2022-09-04T01:46:34.860Z,1.92
2022-09-04T01:49:08.507Z,1.67
2022-09-04T01:51:44.552Z,1.65
2022-09-04T01:54:42.464Z,1.57
2022-09-04T01:57:22.011Z,1.70
2022-09-04T02:00:12.776Z,1.82
2022-09-04T02:02:48.923Z,1.75
2022-09-04T02:05:30.324Z,1.67
2022-09-04T02:08:33.110Z,1.80
2022-09-04T02:11:27.816Z,1.70
2022-09-04T02:14:14.339Z,1.60
2022-09-04T02:16:57.019Z,1.60
2022-09-04T02:19:48.735Z,1.90
2022-09-04T02:22:31.273Z,1.60
2022-09-04T02:25:07.791Z,1.60
2022-09-04T02:27:53.494Z,1.85
2022-09-04T02:30:24.634Z,1.65
2022-09-04T02:33:06.850Z,1.70
2022-09-04T02:35:52.479Z,1.60
2022-09-04T02:38:34.984Z,1.50
2022-09-04T02:41:34.546Z,1.60
2022-09-04T02:44:17.306Z,1.70
2022-09-04T02:47:11.744Z,1.65
2022-09-04T02:50:01.921Z,1.42
2022-09-04T02:52:44.278Z,1.60
2022-09-04T02:55:49.673Z,1.60
2022-09-04T02:58:58.532Z,1.60
2022-09-04T03:01:35.129Z,1.82
2022-09-04T03:04:11.756Z,1.60
2022-09-04T03:06:57.152Z,1.62
2022-09-04T03:09:39.709Z,1.60
2022-09-04T03:12:15.122Z,1.77
2022-09-04T03:15:00.786Z,1.62
2022-09-04T03:17:44.802Z,2.10
2022-09-04T03:20:27.953Z,1.87
2022-09-04T03:23:04.091Z,1.67
2022-09-04T03:25:37.754Z,1.70
2022-09-04T03:28:11.295Z,1.67
2022-09-04T03:30:43.040Z,1.47
2022-09-04T03:33:27.318Z,1.55
2022-09-04T03:36:06.999Z,1.60
2022-09-04T03:38:49.706Z,1.60
2022-09-04T03:41:39.630Z,1.90
2022-09-04T03:44:19.226Z,1.72
2022-09-04T03:47:12.160Z,1.57
2022-09-04T03:49:54.582Z,1.50
2022-09-04T03:53:02.214Z,1.60
2022-09-04T03:55:41.622Z,1.50
2022-09-04T03:58:15.157Z,1.52
2022-09-04T04:00:56.345Z,1.67
2022-09-04T04:03:58.486Z,1.60
2022-09-04T04:06:40.995Z,1.85
2022-09-04T04:09:37.122Z,1.50
2022-09-04T04:12:27.353Z,1.85
2022-09-04T04:15:09.160Z,1.67
2022-09-04T04:17:42.688Z,1.70
2022-09-04T04:20:25.109Z,1.70
2022-09-04T04:23:33.704Z,1.50
2022-09-04T04:26:28.371Z,1.50
2022-09-04T04:29:10.948Z,1.70
2022-09-04T04:31:44.769Z,1.50
2022-09-04T04:34:42.543Z,1.47
2022-09-04T04:37:33.477Z,1.50
2022-09-04T04:40:21.933Z,1.67
2022-09-04T04:43:19.837Z,1.50
2022-09-04T04:46:08.481Z,1.77
2022-09-04T04:49:03.134Z,1.42
2022-09-04T04:51:56.157Z,1.62
2022-09-04T04:54:44.352Z,1.60
2022-09-04T04:57:32.735Z,2.30
2022-09-04T05:00:26.793Z,1.50
2022-09-04T05:03:13.423Z,1.40
2022-09-04T05:05:54.054Z,1.55
2022-09-04T05:08:48.071Z,1.45
2022-09-04T05:11:33.621Z,1.90
2022-09-04T05:14:12.700Z,1.70
2022-09-04T05:17:16.278Z,1.40
2022-09-04T05:19:52.626Z,1.80
2022-09-04T05:22:35.185Z,1.40
2022-09-04T05:25:28.128Z,1.60
2022-09-04T05:28:17.063Z,1.43
2022-09-04T05:30:57.074Z,1.77
2022-09-04T05:33:47.330Z,1.80
2022-09-04T05:36:40.332Z,1.70
2022-09-04T05:39:16.949Z,1.60
2022-09-04T05:42:23.773Z,1.75
2022-09-04T05:45:00.152Z,1.70
2022-09-04T05:47:50.463Z,1.65
2022-09-04T05:50:24.009Z,1.65
2022-09-04T05:53:23.158Z,1.73
2022-09-04T05:56:28.603Z,1.77
2022-09-04T05:59:02.261Z,1.90
2022-09-04T06:01:55.417Z,1.57
2022-09-04T06:04:51.712Z,1.70
2022-09-04T06:07:36.583Z,1.82
2022-09-04T06:10:19.122Z,1.57
2022-09-04T06:13:07.550Z,1.90
2022-09-04T06:15:50.169Z,1.70
2022-09-04T06:18:38.975Z,1.70
2022-09-04T06:21:15.458Z,1.98
2022-09-04T06:23:54.802Z,1.90
2022-09-04T06:26:28.432Z,1.95
2022-09-04T06:29:19.351Z,2.30
2022-09-04T06:32:23.525Z,2.30
2022-09-04T06:35:09.502Z,1.90
2022-09-04T06:37:51.949Z,2.25
2022-09-04T06:40:48.025Z,2.02
2022-09-04T06:43:26.469Z,2.20
2022-09-04T06:46:06.942Z,2.00
2022-09-04T06:48:49.438Z,2.58
2022-09-04T06:51:39.575Z,2.40
2022-09-04T06:54:25.386Z,2.47
2022-09-04T06:57:12.672Z,2.20
2022-09-04T07:00:07.019Z,2.45
2022-09-04T07:02:49.920Z,2.27
2022-09-04T07:05:26.256Z,2.15
2022-09-04T07:08:17.805Z,2.52
2022-09-04T07:10:51.343Z,2.40
2022-09-04T07:13:41.337Z,2.50
2022-09-04T07:16:37.626Z,2.30
2022-09-04T07:19:33.806Z,2.60
2022-09-04T07:22:25.309Z,2.70
2022-09-04T07:25:01.879Z,2.58
2022-09-04T07:27:52.628Z,2.70
2022-09-04T07:30:25.965Z,13.25
2022-09-04T07:33:02.458Z,3.50
2022-09-04T07:35:38.644Z,3.10
2022-09-04T07:38:50.459Z,3.00
2022-09-04T07:41:46.675Z,2.90
2022-09-04T07:44:29.125Z,3.02
2022-09-04T07:47:14.311Z,2.90
2022-09-04T07:50:21.170Z,2.72
2022-09-04T07:53:08.339Z,2.98
2022-09-04T07:55:49.114Z,2.87
2022-09-04T07:58:45.643Z,3.10
2022-09-04T08:01:25.205Z,3.60
2022-09-04T08:04:21.421Z,2.62
2022-09-04T08:06:54.947Z,3.02
2022-09-04T08:09:44.749Z,3.02
2022-09-04T08:12:51.673Z,3.00
2022-09-04T08:15:43.528Z,3.17
2022-09-04T08:18:41.783Z,3.12
2022-09-04T08:21:31.922Z,3.65
2022-09-04T08:24:23.759Z,2.85
2022-09-04T08:27:13.970Z,3.27
2022-09-04T08:30:08.633Z,3.60
2022-09-04T08:33:01.655Z,3.22
2022-09-04T08:35:37.973Z,3.60
2022-09-04T08:38:20.317Z,3.22
2022-09-04T08:41:08.816Z,3.20
2022-09-04T08:44:06.868Z,3.87
2022-09-04T08:47:00.081Z,3.27
2022-09-04T08:50:05.298Z,3.33
2022-09-04T08:53:03.979Z,3.22
2022-09-04T08:55:49.798Z,4.00
2022-09-04T08:58:56.548Z,3.42
2022-09-04T09:01:48.362Z,3.55
2022-09-04T09:04:57.202Z,3.25
2022-09-04T09:07:54.978Z,2.90
2022-09-04T09:10:40.581Z,3.10
2022-09-04T09:13:32.323Z,3.15
2022-09-04T09:16:20.491Z,2.90
2022-09-04T09:18:54.102Z,5.67
2022-09-04T09:21:49.441Z,5.20
2022-09-04T09:24:28.298Z,3.45
2022-09-04T09:27:14.107Z,5.25
2022-09-04T09:30:04.358Z,3.42
2022-09-04T09:33:08.272Z,2.80
2022-09-04T09:36:12.118Z,2.60
2022-09-04T09:38:48.635Z,2.92
2022-09-04T09:41:48.035Z,4.33
2022-09-04T09:44:21.838Z,3.10
2022-09-04T09:47:24.012Z,3.27
2022-09-04T09:50:12.605Z,2.90
2022-09-04T09:52:48.645Z,2.58
2022-09-04T09:55:41.768Z,2.72
2022-09-04T09:58:33.538Z,2.50
2022-09-04T10:01:32.666Z,3.02
2022-09-04T10:04:38.279Z,2.75
2022-09-04T10:07:16.026Z,2.52
2022-09-04T10:10:06.080Z,3.10
2022-09-04T10:12:51.517Z,2.90
2022-09-04T10:15:58.616Z,3.40
2022-09-04T10:18:56.052Z,3.00
2022-09-04T10:21:32.113Z,2.77
2022-09-04T10:24:10.217Z,2.70
2022-09-04T10:26:49.297Z,2.92
2022-09-04T10:29:55.952Z,2.85
2022-09-04T10:33:00.523Z,3.35
2022-09-04T10:35:40.143Z,3.20
2022-09-04T10:38:30.493Z,2.72
2022-09-04T10:41:21.941Z,2.90
2022-09-04T10:44:15.250Z,2.85
2022-09-04T10:47:08.250Z,2.87
2022-09-04T10:50:02.788Z,2.80
2022-09-04T10:53:00.502Z,3.50
2022-09-04T10:55:43.933Z,3.42
2022-09-04T10:58:26.311Z,2.70
2022-09-04T11:01:26.916Z,5.75
2022-09-04T11:04:08.260Z,2.85
2022-09-04T11:06:57.726Z,3.25
2022-09-04T11:09:37.196Z,2.83
2022-09-04T11:12:25.693Z,3.90
2022-09-04T11:15:05.131Z,3.55
2022-09-04T11:17:56.904Z,3.50
2022-09-04T11:20:46.824Z,3.10
2022-09-04T11:23:37.161Z,4.45
2022-09-04T11:26:46.164Z,4.30
2022-09-04T11:29:22.485Z,3.02
2022-09-04T11:32:06.590Z,2.55
2022-09-04T11:34:57.160Z,2.80
2022-09-04T11:37:47.134Z,2.77
2022-09-04T11:40:32.413Z,2.95
2022-09-04T11:43:19.118Z,2.60
2022-09-04T11:46:27.252Z,2.77
2022-09-04T11:49:22.689Z,2.50
2022-09-04T11:52:04.923Z,2.55
2022-09-04T11:54:56.486Z,2.70
2022-09-04T11:57:46.635Z,2.70
2022-09-04T12:00:19.027Z,2.60
2022-09-04T12:03:15.780Z,2.70
2022-09-04T12:06:09.465Z,3.65
2022-09-04T12:09:00.690Z,3.12
2022-09-04T12:12:00.971Z,2.70
2022-09-04T12:14:43.572Z,2.42
2022-09-04T12:17:26.286Z,3.00
2022-09-04T12:20:24.118Z,2.90
2022-09-04T12:23:03.848Z,2.30
2022-09-04T12:25:46.146Z,2.67
2022-09-04T12:28:36.569Z,2.65
2022-09-04T12:31:18.741Z,4.30
2022-09-04T12:34:04.379Z,5.28
2022-09-04T12:36:41.139Z,3.00
2022-09-04T12:39:20.518Z,8.78
2022-09-04T12:42:15.173Z,3.17
2022-09-04T12:44:58.493Z,2.98
2022-09-04T12:47:57.298Z,3.25
2022-09-04T12:50:50.788Z,3.40
2022-09-04T12:53:37.065Z,3.00
2022-09-04T12:56:26.216Z,2.80
2022-09-04T12:59:02.812Z,3.20
2022-09-04T13:01:48.606Z,3.02
2022-09-04T13:04:27.472Z,2.50
2022-09-04T13:07:07.078Z,2.77
2022-09-04T13:09:58.563Z,3.08
2022-09-04T13:12:37.757Z,2.80
2022-09-04T13:15:35.513Z,2.72
2022-09-04T13:18:27.329Z,2.65
2022-09-04T13:21:18.381Z,2.77
2022-09-04T13:24:10.781Z,2.62
2022-09-04T13:26:44.388Z,2.80
2022-09-04T13:29:29.916Z,3.75
2022-09-04T13:32:13.030Z,2.70
2022-09-04T13:35:04.554Z,3.25
2022-09-04T13:37:57.936Z,3.50
2022-09-04T13:40:35.836Z,3.00
2022-09-04T13:43:26.184Z,2.70
2022-09-04T13:45:59.477Z,3.02
2022-09-04T13:48:47.553Z,2.90
2022-09-04T13:51:23.171Z,2.70
2022-09-04T13:54:16.449Z,2.80
2022-09-04T13:57:20.404Z,2.72
2022-09-04T13:59:53.810Z,2.55
2022-09-04T14:02:27.458Z,2.70
2022-09-04T14:05:39.653Z,2.60
2022-09-04T14:07:49.980Z,2.50
2022-09-04T14:10:26.403Z,2.60
2022-09-04T14:13:02.582Z,3.00
2022-09-04T14:16:06.590Z,3.00
2022-09-04T14:18:59.178Z,2.80
2022-09-04T14:21:35.487Z,2.60
2022-09-04T14:24:25.787Z,2.70
2022-09-04T14:26:59.541Z,2.47
2022-09-04T14:29:41.817Z,2.52
2022-09-04T14:32:43.814Z,2.70
2022-09-04T14:35:28.267Z,2.70
2022-09-04T14:38:21.690Z,2.40
2022-09-04T14:41:10.285Z,2.70
2022-09-04T14:43:49.506Z,2.85
2022-09-04T14:46:24.754Z,2.70
2022-09-04T14:49:04.377Z,2.55
2022-09-04T14:51:43.552Z,2.72
2022-09-04T14:54:25.852Z,2.42
2022-09-04T14:56:59.400Z,2.90
2022-09-04T14:59:35.876Z,2.80
2022-09-04T15:02:15.343Z,2.30
2022-09-04T15:05:01.389Z,2.35
2022-09-04T15:07:43.822Z,4.53
2022-09-04T15:10:32.968Z,3.27
2022-09-04T15:13:33.469Z,3.22
2022-09-04T15:16:20.065Z,3.00
2022-09-04T15:18:59.406Z,2.50
2022-09-04T15:21:38.759Z,2.80
2022-09-04T15:24:30.738Z,3.50
2022-09-04T15:27:17.208Z,2.90
2022-09-04T15:29:56.484Z,2.98
2022-09-04T15:32:30.892Z,2.80
2022-09-04T15:35:23.164Z,3.50
2022-09-04T15:38:05.940Z,2.62
2022-09-04T15:40:59.724Z,3.35
2022-09-04T15:43:19.690Z,3.37
2022-09-04T15:45:56.251Z,4.50
2022-09-04T15:48:45.035Z,2.95
2022-09-04T15:51:35.195Z,3.30
2022-09-04T15:54:21.306Z,3.08
2022-09-04T15:57:01.144Z,2.90
2022-09-04T15:59:40.437Z,2.90
2022-09-04T16:02:35.479Z,2.58
2022-09-04T16:05:23.955Z,2.60
2022-09-04T16:08:01.589Z,2.87
2022-09-04T16:10:44.931Z,2.80
2022-09-04T16:13:30.470Z,2.90
2022-09-04T16:16:12.614Z,2.67
2022-09-04T16:19:18.106Z,2.72
2022-09-04T16:22:09.843Z,2.65
2022-09-04T16:24:46.357Z,2.75
2022-09-04T16:27:22.737Z,2.85
2022-09-04T16:30:02.980Z,3.02
2022-09-04T16:32:35.946Z,2.83
2022-09-04T16:35:13.625Z,2.72
2022-09-04T16:38:06.405Z,2.65
2022-09-04T16:40:42.616Z,2.85
2022-09-04T16:43:18.835Z,3.10
2022-09-04T16:45:55.309Z,3.72
2022-09-04T16:48:47.074Z,3.05
2022-09-04T16:51:41.413Z,2.90
2022-09-04T16:54:29.003Z,2.87
2022-09-04T16:57:12.127Z,2.87
2022-09-04T16:59:46.411Z,2.80
2022-09-04T17:02:36.409Z,2.85
2022-09-04T17:05:14.798Z,2.72
2022-09-04T17:07:59.313Z,3.70
2022-09-04T17:10:36.160Z,4.10
2022-09-04T17:13:10.226Z,5.97
2022-09-04T17:16:00.429Z,3.80
2022-09-04T17:18:32.181Z,3.10
2022-09-04T17:24:10.773Z,3.95
2022-09-04T17:28:52.135Z,3.62
2022-09-04T17:29:09.738Z,3.65
2022-09-04T17:29:33.708Z,2.95
2022-09-04T17:31:38.835Z,3.75
2022-09-04T17:40:39.024Z,3.47
2022-09-04T17:40:48.847Z,4.67
2022-09-04T17:40:49.877Z,3.02
2022-09-04T17:42:28.326Z,3.40
2022-09-04T17:45:04.813Z,3.17
2022-09-04T17:47:44.255Z,3.12
2022-09-04T17:50:25.303Z,2.87
2022-09-04T17:52:58.843Z,3.25
2022-09-04T17:55:39.173Z,3.60
2022-09-04T17:58:26.468Z,3.20
2022-09-04T18:01:14.159Z,3.50
2022-09-04T18:04:19.818Z,3.40
2022-09-04T18:06:39.194Z,3.47
2022-09-04T18:09:26.567Z,3.25
2022-09-04T18:12:09.252Z,3.30
2022-09-04T18:15:32.848Z,3.60
2022-09-04T18:17:31.633Z,3.17
2022-09-04T18:20:17.218Z,3.50
2022-09-04T18:23:12.223Z,3.58
2022-09-04T18:25:45.787Z,3.75
2022-09-04T18:28:32.220Z,3.47
2022-09-04T18:37:10.332Z,3.55
2022-09-04T18:37:20.412Z,5.12
2022-09-04T18:37:25.851Z,4.85
2022-09-04T18:39:15.686Z,4.08
2022-09-04T18:49:10.326Z,3.50
2022-09-04T18:50:32.849Z,3.70
2022-09-04T18:50:33.447Z,5.20
2022-09-04T18:50:49.096Z,10.93
2022-09-04T18:52:55.531Z,4.70
2022-09-04T18:55:34.783Z,4.60
2022-09-04T18:58:14.011Z,3.98
2022-09-04T19:00:51.884Z,4.12
2022-09-04T19:03:28.175Z,4.03
2022-09-04T19:06:01.675Z,4.42
2022-09-04T19:08:35.356Z,4.50
2022-09-04T19:11:20.827Z,4.20
2022-09-04T19:14:10.795Z,4.25
2022-09-04T19:16:44.664Z,4.30
2022-09-04T19:19:34.159Z,3.80
2022-09-04T19:22:16.545Z,4.22
2022-09-04T19:25:02.071Z,4.08
2022-09-04T19:27:35.748Z,4.08
2022-09-04T19:30:18.224Z,3.60
2022-09-04T19:33:00.484Z,4.12
2022-09-04T19:35:37.089Z,4.67
2022-09-04T19:45:03.692Z,5.25
2022-09-04T19:45:56.432Z,4.60
2022-09-04T19:46:17.662Z,4.10
2022-09-04T19:46:40.096Z,4.58
2022-09-04T19:50:53.953Z,4.50
2022-09-04T19:53:35.190Z,4.35
2022-09-04T19:54:59.842Z,3.75
2022-09-04T19:57:44.853Z,4.05
2022-09-04T20:00:42.378Z,3.77
2022-09-04T20:03:05.042Z,4.20
2022-09-04T20:05:39.946Z,4.50
2022-09-04T20:08:19.226Z,3.80
2022-09-04T20:10:52.801Z,4.78
2022-09-04T20:13:41.159Z,4.12
2022-09-04T20:16:21.910Z,4.35
2022-09-04T20:19:12.071Z,4.03
2022-09-04T20:21:50.244Z,4.50
2022-09-04T20:24:26.721Z,4.80
2022-09-04T20:27:00.345Z,4.92
2022-09-04T20:29:54.603Z,4.75
2022-09-04T20:32:24.229Z,4.53
2022-09-04T20:35:13.639Z,4.10
2022-09-04T20:37:47.936Z,4.33
2022-09-04T20:40:27.007Z,4.47
2022-09-04T20:43:15.642Z,4.00
2022-09-04T20:49:00.923Z,4.05
2022-09-04T20:52:44.635Z,4.30
2022-09-04T20:52:51.376Z,4.42
2022-09-04T20:54:23.378Z,4.50
2022-09-04T21:00:32.782Z,4.37
2022-09-04T21:03:11.154Z,4.17
2022-09-04T21:03:23.855Z,3.80
2022-09-04T21:05:40.413Z,4.42
2022-09-04T21:08:20.188Z,4.83
2022-09-04T21:10:59.514Z,4.10
2022-09-04T21:13:41.780Z,4.20
2022-09-04T21:16:33.776Z,4.60
2022-09-04T21:19:41.557Z,4.40
2022-09-04T21:22:32.560Z,4.50
2022-09-04T21:24:56.659Z,4.60
2022-09-04T21:28:03.685Z,4.40
2022-09-04T21:30:55.110Z,4.40
2022-09-04T21:33:34.479Z,4.35
2022-09-04T21:36:26.233Z,4.50
2022-09-04T21:39:05.407Z,4.37
2022-09-04T21:41:39.000Z,4.40
2022-09-04T21:44:30.779Z,4.42
2022-09-04T21:47:10.533Z,4.28
2022-09-04T21:50:00.663Z,4.10
2022-09-04T21:52:49.163Z,4.30
2022-09-04T21:57:28.818Z,4.05
2022-09-04T22:02:27.649Z,3.80
2022-09-04T22:02:36.339Z,4.55
2022-09-04T22:03:52.400Z,4.25
2022-09-04T22:08:08.439Z,4.30
2022-09-04T22:13:29.336Z,4.37
2022-09-04T22:13:43.500Z,4.53
2022-09-04T22:15:13.916Z,4.85
2022-09-04T22:18:06.696Z,4.80
2022-09-04T22:20:54.795Z,4.40
2022-09-04T22:23:40.288Z,4.28
2022-09-04T22:26:28.736Z,4.35
2022-09-04T22:29:26.780Z,4.83
2022-09-04T22:32:20.340Z,4.62
2022-09-04T22:35:10.121Z,4.45
2022-09-04T22:37:43.729Z,4.60
2022-09-04T22:40:56.048Z,4.65
2022-09-04T22:43:17.034Z,4.40
2022-09-04T22:46:08.573Z,4.40
2022-09-04T22:48:47.916Z,4.70
2022-09-04T22:51:23.129Z,4.50
2022-09-04T22:54:02.716Z,4.67
2022-09-04T22:57:00.617Z,4.40
2022-09-04T22:59:46.224Z,4.33
2022-09-04T23:03:07.157Z,4.55
2022-09-04T23:05:34.356Z,4.78
2022-09-04T23:13:49.924Z,4.70
2022-09-04T23:13:56.230Z,4.62
2022-09-04T23:13:57.317Z,4.67
2022-09-04T23:16:33.658Z,4.70
2022-09-04T23:24:00.066Z,4.72
2022-09-04T23:26:42.225Z,4.60
2022-09-04T23:26:45.677Z,4.47
2022-09-04T23:27:28.297Z,4.60
2022-09-04T23:30:15.261Z,4.45
2022-09-04T23:33:27.919Z,4.42
2022-09-04T23:36:33.612Z,4.40
2022-09-04T23:39:07.151Z,4.25
2022-09-04T23:42:04.737Z,4.37
2022-09-04T23:44:54.867Z,4.30
2022-09-04T23:47:49.859Z,4.58
2022-09-04T23:50:47.576Z,4.45
2022-09-04T23:53:39.564Z,4.60
2022-09-04T23:56:28.199Z,4.65
2022-09-04T23:59:36.466Z,4.75
